Time;durP1;ratioP1;P1;durP2;ratioP2;P2;SDS_P1;SDS_P2;PMS_P1;PMS_P2;Temp;Humidity;BMP_temperature;BMP_pressure;BME280_temperature;BME280_humidity;BME280_pressure;Samples;Min_cycle;Max_cycle;Signal;HPM_P1;HPM_P2
2023/04/26 00:01:56;;;;;;;7.60;1.98;;;3.70;99.90;;;;;;5062349;28;20061;-88
2023/04/26 00:04:22;;;;;;;8.57;2.10;;;3.70;99.90;;;;;;5058560;28;20439;-87
2023/04/26 00:06:48;;;;;;;8.30;2.72;;;3.70;99.90;;;;;;5058302;28;20032;-88
2023/04/26 00:09:14;;;;;;;8.95;2.10;;;3.60;99.90;;;;;;5058440;28;20048;-88
2023/04/26 00:11:40;;;;;;;8.25;1.73;;;3.60;99.90;;;;;;5038420;28;20127;-88
2023/04/26 00:14:05;;;;;;;9.10;2.08;;;3.60;99.90;;;;;;5062410;28;20091;-88
2023/04/26 00:16:31;;;;;;;6.70;1.80;;;3.50;99.90;;;;;;5055427;28;20531;-87
2023/04/26 00:18:57;;;;;;;5.97;1.48;;;3.50;99.90;;;;;;5046614;28;20044;-88
2023/04/26 00:21:22;;;;;;;7.15;2.08;;;3.40;99.90;;;;;;5074115;28;20080;-88
2023/04/26 00:23:48;;;;;;;8.50;2.08;;;3.40;99.90;;;;;;5075034;28;20024;-87
2023/04/26 00:26:13;;;;;;;6.03;2.10;;;3.30;99.90;;;;;;5073039;28;20125;-87
2023/04/26 00:28:39;;;;;;;8.23;2.08;;;3.30;99.90;;;;;;5058737;28;20075;-87
2023/04/26 00:31:06;;;;;;;7.82;1.95;;;3.20;99.90;;;;;;5073971;28;20028;-87
2023/04/26 00:33:31;;;;;;;11.82;2.60;;;3.20;99.90;;;;;;5074535;28;20036;-87
2023/04/26 00:35:57;;;;;;;11.30;2.72;;;3.10;99.90;;;;;;5057647;28;20044;-87
2023/04/26 00:38:23;;;;;;;6.95;2.00;;;3.00;99.90;;;;;;5057303;28;20036;-87
2023/04/26 00:40:48;;;;;;;7.75;1.80;;;3.00;99.90;;;;;;5058389;28;20050;-87
2023/04/26 00:43:14;;;;;;;11.43;2.58;;;3.00;99.90;;;;;;5058182;28;20043;-87
2023/04/26 00:45:40;;;;;;;7.68;1.90;;;2.90;99.90;;;;;;5040930;28;20409;-87
2023/04/26 00:48:06;;;;;;;6.93;2.60;;;2.90;99.90;;;;;;5038866;28;20128;-87
2023/04/26 00:50:32;;;;;;;10.40;2.35;;;2.90;99.90;;;;;;5044765;28;20040;-87
2023/04/26 00:52:58;;;;;;;7.50;2.28;;;2.90;99.90;;;;;;5058613;28;20058;-87
2023/04/26 00:55:26;;;;;;;8.05;2.80;;;3.00;99.90;;;;;;5057415;28;20051;-87
2023/04/26 00:57:52;;;;;;;6.90;2.33;;;3.00;99.90;;;;;;5058705;28;20048;-88
2023/04/26 01:00:18;;;;;;;6.60;2.40;;;3.10;99.90;;;;;;5074771;28;20133;-87
2023/04/26 01:02:44;;;;;;;8.05;2.03;;;3.10;99.90;;;;;;5063974;28;20474;-87
2023/04/26 01:05:10;;;;;;;9.75;2.00;;;3.20;99.90;;;;;;5054692;28;20055;-87
2023/04/26 01:07:37;;;;;;;7.00;2.13;;;3.20;99.90;;;;;;5046288;28;20040;-87
2023/04/26 01:10:04;;;;;;;8.13;2.80;;;3.30;99.90;;;;;;5054554;28;20375;-87
2023/04/26 01:12:31;;;;;;;9.02;2.50;;;3.30;99.90;;;;;;5062304;28;20055;-87
2023/04/26 01:14:58;;;;;;;9.95;2.80;;;3.40;99.90;;;;;;5057372;28;20036;-87
2023/04/26 01:17:24;;;;;;;16.60;3.13;;;3.50;99.90;;;;;;5074538;28;20413;-88
2023/04/26 01:19:51;;;;;;;7.30;2.28;;;3.50;99.90;;;;;;5073262;28;20047;-88
2023/04/26 01:22:16;;;;;;;13.63;2.85;;;3.60;99.90;;;;;;5073757;28;20115;-87
2023/04/26 01:24:45;;;;;;;7.53;2.00;;;3.70;99.90;;;;;;5074084;28;20052;-87
2023/04/26 01:27:11;;;;;;;8.88;2.25;;;3.70;99.90;;;;;;5059711;28;20479;-87
2023/04/26 01:29:36;;;;;;;8.07;2.15;;;3.80;99.90;;;;;;5054101;28;20068;-87
2023/04/26 01:32:02;;;;;;;10.50;2.13;;;3.80;99.90;;;;;;5061213;28;20074;-88
2023/04/26 01:34:28;;;;;;;11.43;2.42;;;3.90;99.90;;;;;;5055020;28;20036;-88
2023/04/26 01:36:53;;;;;;;7.13;1.92;;;3.90;99.90;;;;;;5037737;28;20040;-87
2023/04/26 01:39:19;;;;;;;11.27;2.33;;;3.90;99.90;;;;;;5074025;28;20043;-88
2023/04/26 01:41:45;;;;;;;7.20;2.22;;;3.90;99.90;;;;;;5057025;28;20032;-87
2023/04/26 01:44:10;;;;;;;7.07;2.22;;;4.00;99.90;;;;;;5056118;28;20554;-88
2023/04/26 01:46:36;;;;;;;7.53;2.03;;;4.00;99.90;;;;;;5074326;28;20036;-87
2023/04/26 01:49:02;;;;;;;7.30;2.25;;;4.00;99.90;;;;;;5073635;28;20040;-88
2023/04/26 01:51:27;;;;;;;7.40;2.30;;;4.00;99.90;;;;;;5047573;28;20454;-88
2023/04/26 01:53:53;;;;;;;13.63;4.25;;;4.00;99.90;;;;;;5053835;28;20029;-88
2023/04/26 01:56:19;;;;;;;8.95;2.20;;;4.00;99.90;;;;;;5054157;28;20068;-88
2023/04/26 01:58:45;;;;;;;7.32;2.03;;;4.00;99.90;;;;;;5073424;28;20057;-87
2023/04/26 02:01:11;;;;;;;6.80;2.33;;;3.90;99.90;;;;;;5073371;28;20115;-87
2023/04/26 02:03:36;;;;;;;11.20;2.13;;;3.90;99.90;;;;;;5072689;28;20079;-87
2023/04/26 02:06:03;;;;;;;7.65;2.22;;;3.80;99.90;;;;;;5062199;28;20042;-87
2023/04/26 02:08:28;;;;;;;7.35;2.03;;;3.70;99.90;;;;;;5056696;28;20093;-88
2023/04/26 02:10:54;;;;;;;9.05;2.28;;;3.70;99.90;;;;;;5073093;28;20036;-87
2023/04/26 02:13:20;;;;;;;8.00;2.05;;;3.60;99.90;;;;;;5073373;28;20632;-86
2023/04/26 02:15:47;;;;;;;7.47;2.17;;;3.50;99.90;;;;;;5072529;28;20100;-87
2023/04/26 02:18:13;;;;;;;9.10;2.45;;;3.50;99.90;;;;;;5072825;28;20065;-87
2023/04/26 02:20:42;;;;;;;7.13;2.25;;;3.40;99.90;;;;;;5072643;28;20036;-87
2023/04/26 02:23:08;;;;;;;5.20;2.10;;;3.30;99.90;;;;;;5073001;28;20127;-87
2023/04/26 02:25:34;;;;;;;8.68;2.00;;;3.30;99.90;;;;;;5073755;28;20486;-87
2023/04/26 02:28:00;;;;;;;7.72;2.42;;;3.30;99.90;;;;;;5072735;28;20036;-87
2023/04/26 02:30:26;;;;;;;6.85;2.28;;;3.30;99.90;;;;;;5055810;28;20036;-87
2023/04/26 02:32:53;;;;;;;9.25;2.00;;;3.20;99.90;;;;;;5056799;28;20047;-87
2023/04/26 02:35:20;;;;;;;6.82;2.00;;;3.20;99.90;;;;;;5055674;28;20378;-87
2023/04/26 02:37:47;;;;;;;10.82;3.85;;;3.20;99.90;;;;;;5056803;28;20036;-87
2023/04/26 02:40:14;;;;;;;8.57;2.08;;;3.20;99.90;;;;;;5072176;28;20131;-87
2023/04/26 02:42:40;;;;;;;15.85;2.97;;;3.30;99.90;;;;;;5055793;28;20040;-87
2023/04/26 02:45:07;;;;;;;6.00;2.10;;;3.30;99.90;;;;;;5055958;28;20502;-87
2023/04/26 02:47:35;;;;;;;7.00;2.53;;;3.30;99.90;;;;;;5049373;28;20136;-87
2023/04/26 02:50:02;;;;;;;7.82;2.35;;;3.30;99.90;;;;;;5051685;28;20040;-87
2023/04/26 02:52:28;;;;;;;9.73;2.53;;;3.30;99.90;;;;;;5048589;28;20040;-87
2023/04/26 02:54:53;;;;;;;6.72;2.17;;;3.30;99.90;;;;;;5056241;28;20051;-87
2023/04/26 02:57:19;;;;;;;7.47;2.10;;;3.40;99.90;;;;;;5072798;28;20036;-87
2023/04/26 02:59:45;;;;;;;10.52;2.40;;;3.40;99.90;;;;;;5064721;28;20756;-87
2023/04/26 03:02:11;;;;;;;7.93;2.22;;;3.30;99.90;;;;;;5052467;28;20545;-87
2023/04/26 03:04:37;;;;;;;10.55;2.30;;;3.30;99.90;;;;;;5035929;28;20040;-87
2023/04/26 03:07:03;;;;;;;11.10;2.67;;;3.30;99.90;;;;;;5060217;28;20032;-87
2023/04/26 03:09:29;;;;;;;4.53;1.80;;;3.30;99.90;;;;;;5052298;28;20477;-87
2023/04/26 03:11:54;;;;;;;7.13;2.13;;;3.30;99.90;;;;;;5064289;28;20115;-87
2023/04/26 03:14:20;;;;;;;8.23;2.22;;;3.20;99.90;;;;;;5055673;28;20563;-86
2023/04/26 03:16:47;;;;;;;8.15;2.55;;;3.20;99.90;;;;;;5072434;28;20075;-87
2023/04/26 03:19:13;;;;;;;8.38;2.88;;;3.20;99.90;;;;;;5055188;28;20043;-87
2023/04/26 03:21:39;;;;;;;11.40;2.53;;;3.20;99.90;;;;;;5055512;28;20036;-87
2023/04/26 03:24:05;;;;;;;8.32;2.42;;;3.10;99.90;;;;;;5054769;28;20111;-87
2023/04/26 03:26:31;;;;;;;5.85;1.95;;;3.10;99.90;;;;;;5071784;28;20501;-87
2023/04/26 03:28:56;;;;;;;8.23;2.22;;;3.10;99.90;;;;;;5071726;28;20039;-87
2023/04/26 03:31:22;;;;;;;6.75;2.20;;;3.00;99.90;;;;;;5071532;28;20119;-87
2023/04/26 03:33:48;;;;;;;6.43;1.88;;;3.00;99.90;;;;;;5072466;28;20070;-87
2023/04/26 03:36:14;;;;;;;6.05;1.60;;;2.90;99.90;;;;;;5054694;28;20048;-87
2023/04/26 03:38:41;;;;;;;8.63;2.28;;;2.90;99.90;;;;;;5055769;28;20047;-87
2023/04/26 03:41:07;;;;;;;10.73;2.35;;;2.90;99.90;;;;;;5071745;28;20097;-87
2023/04/26 03:43:33;;;;;;;4.90;1.90;;;2.90;99.90;;;;;;5071599;28;20048;-87
2023/04/26 03:45:59;;;;;;;5.43;1.80;;;2.80;99.90;;;;;;5072418;28;20032;-87
2023/04/26 03:48:26;;;;;;;8.60;1.90;;;2.80;99.90;;;;;;5071558;28;20036;-86
2023/04/26 03:50:52;;;;;;;5.78;1.70;;;2.70;99.90;;;;;;5035660;28;20096;-87
2023/04/26 03:53:18;;;;;;;5.25;2.00;;;2.70;99.90;;;;;;5035621;28;20048;-87
2023/04/26 03:55:44;;;;;;;6.15;1.50;;;2.70;99.90;;;;;;5053552;28;20032;-87
2023/04/26 03:58:10;;;;;;;7.82;2.13;;;2.60;99.90;;;;;;5072306;28;20427;-87
2023/04/26 04:00:40;;;;;;;7.28;2.10;;;2.60;99.90;;;;;;5071699;28;20032;-87
2023/04/26 04:03:06;;;;;;;9.07;2.85;;;2.50;99.90;;;;;;5058860;28;20032;-88
2023/04/26 04:05:32;;;;;;;6.18;2.08;;;2.50;99.90;;;;;;5074791;28;20036;-88
2023/04/26 04:07:58;;;;;;;6.55;2.17;;;2.50;99.90;;;;;;5074905;28;20047;-89
2023/04/26 04:10:24;;;;;;;8.15;2.53;;;2.40;99.90;;;;;;5058527;28;20032;-88
2023/04/26 04:12:50;;;;;;;6.68;2.15;;;2.40;99.90;;;;;;5057745;28;20048;-88
2023/04/26 04:15:16;;;;;;;7.53;2.15;;;2.40;99.90;;;;;;5075551;28;20071;-88
2023/04/26 04:17:42;;;;;;;7.78;2.55;;;2.30;99.90;;;;;;5075620;28;20095;-88
2023/04/26 04:20:08;;;;;;;6.93;2.25;;;2.30;99.90;;;;;;5074655;28;20084;-88
2023/04/26 04:22:34;;;;;;;10.52;2.15;;;2.40;99.90;;;;;;5075782;28;20545;-88
2023/04/26 04:24:59;;;;;;;8.63;2.33;;;2.40;99.90;;;;;;5074642;28;20115;-88
2023/04/26 04:27:28;;;;;;;10.98;2.95;;;2.40;99.90;;;;;;5075984;28;20040;-88
2023/04/26 04:29:54;;;;;;;8.45;2.42;;;2.40;99.90;;;;;;5075751;28;20396;-88
2023/04/26 04:32:22;;;;;;;7.13;2.15;;;2.40;99.90;;;;;;5074446;28;20492;-86
2023/04/26 04:34:48;;;;;;;6.40;2.13;;;2.40;99.90;;;;;;5058662;28;20050;-86
2023/04/26 04:37:13;;;;;;;5.78;1.70;;;2.40;99.90;;;;;;5055741;28;20031;-86
2023/04/26 04:39:39;;;;;;;6.70;2.15;;;2.40;99.90;;;;;;5038690;28;20231;-86
2023/04/26 04:42:05;;;;;;;8.45;2.00;;;2.40;99.90;;;;;;5038400;28;20039;-86
2023/04/26 04:44:31;;;;;;;5.93;2.03;;;2.40;99.90;;;;;;5046482;28;20028;-86
2023/04/26 04:46:57;;;;;;;9.35;2.47;;;2.30;99.90;;;;;;5038681;28;20494;-86
2023/04/26 04:49:23;;;;;;;7.88;2.45;;;2.30;99.90;;;;;;5043342;28;20032;-86
2023/04/26 04:51:49;;;;;;;5.90;2.03;;;2.30;99.90;;;;;;5057413;28;20040;-86
2023/04/26 04:54:16;;;;;;;10.30;2.10;;;2.30;99.90;;;;;;5057594;28;20148;-86
2023/04/26 04:56:43;;;;;;;8.70;2.28;;;2.30;99.90;;;;;;5073582;28;20036;-86
2023/04/26 04:59:09;;;;;;;9.38;2.63;;;2.30;99.90;;;;;;5074707;28;20090;-86
2023/04/26 05:01:38;;;;;;;8.23;2.03;;;2.40;99.90;;;;;;5073486;28;20055;-86
2023/04/26 05:04:04;;;;;;;10.75;2.20;;;2.40;99.90;;;;;;5057492;28;20036;-86
2023/04/26 05:06:33;;;;;;;8.68;2.05;;;2.40;99.90;;;;;;5074841;28;20493;-86
2023/04/26 05:09:00;;;;;;;11.35;2.28;;;2.40;99.90;;;;;;5050157;28;20072;-86
2023/04/26 05:11:26;;;;;;;7.68;2.05;;;2.40;99.90;;;;;;5037993;28;20107;-86
2023/04/26 05:13:51;;;;;;;11.63;2.30;;;2.50;99.90;;;;;;5055480;28;20036;-86
2023/04/26 05:16:17;;;;;;;10.48;2.33;;;2.50;99.90;;;;;;5074051;28;20048;-86
2023/04/26 05:18:43;;;;;;;7.05;2.47;;;2.50;99.90;;;;;;5058307;28;20040;-86
2023/04/26 05:21:08;;;;;;;8.45;2.50;;;2.50;99.90;;;;;;5072741;28;20586;-86
2023/04/26 05:23:34;;;;;;;9.13;2.10;;;2.60;99.90;;;;;;5074021;28;20040;-85
2023/04/26 05:26:03;;;;;;;7.28;2.05;;;2.70;99.90;;;;;;5057642;28;20078;-85
2023/04/26 05:28:29;;;;;;;6.65;2.75;;;2.70;99.90;;;;;;5053303;28;20074;-86
2023/04/26 05:30:55;;;;;;;9.27;3.05;;;2.70;99.90;;;;;;5057491;28;20044;-86
2023/04/26 05:33:20;;;;;;;7.22;2.17;;;2.80;99.90;;;;;;5053901;28;20047;-86
2023/04/26 05:35:46;;;;;;;10.25;2.15;;;2.80;99.90;;;;;;5073702;28;20433;-86
2023/04/26 05:38:11;;;;;;;8.80;2.25;;;2.90;99.90;;;;;;5073910;28;20044;-85
2023/04/26 05:40:37;;;;;;;7.15;2.60;;;3.00;99.90;;;;;;5057294;28;20044;-86
2023/04/26 05:43:03;;;;;;;10.25;2.70;;;3.10;99.90;;;;;;5053921;28;20044;-86
2023/04/26 05:45:28;;;;;;;10.60;3.20;;;3.10;99.90;;;;;;5053702;28;20055;-86
2023/04/26 05:47:55;;;;;;;10.45;2.58;;;3.20;99.90;;;;;;5038900;28;20066;-86
2023/04/26 05:50:20;;;;;;;9.32;2.63;;;3.30;99.90;;;;;;5054677;28;20119;-86
2023/04/26 05:52:46;;;;;;;8.77;2.78;;;3.50;99.90;;;;;;5073634;28;20145;-85
2023/04/26 05:55:12;;;;;;;10.60;2.20;;;3.60;99.90;;;;;;5074195;28;20525;-86
2023/04/26 05:57:38;;;;;;;9.25;2.40;;;3.70;99.90;;;;;;5073230;28;20043;-86
2023/04/26 06:00:05;;;;;;;7.85;2.63;;;3.80;99.90;;;;;;5057097;28;20047;-86
2023/04/26 06:02:30;;;;;;;12.30;3.40;;;4.00;99.90;;;;;;5056924;28;20123;-86
2023/04/26 06:04:56;;;;;;;8.63;3.03;;;4.10;99.90;;;;;;5063020;28;20111;-86
2023/04/26 06:07:22;;;;;;;7.75;2.33;;;4.20;99.90;;;;;;5053183;28;20087;-86
2023/04/26 06:09:48;;;;;;;6.95;2.60;;;4.30;99.90;;;;;;5064704;28;20036;-86
2023/04/26 06:12:13;;;;;;;6.55;2.20;;;4.40;99.90;;;;;;5073468;28;20452;-86
2023/04/26 06:14:39;;;;;;;6.90;2.08;;;4.40;99.90;;;;;;5072698;28;20046;-86
2023/04/26 06:17:05;;;;;;;11.25;2.38;;;4.50;99.90;;;;;;5072952;28;20044;-86
2023/04/26 06:19:30;;;;;;;9.68;2.95;;;4.60;99.90;;;;;;5055780;28;20036;-87
2023/04/26 06:21:56;;;;;;;10.73;3.00;;;4.70;99.90;;;;;;5072400;28;20040;-87
2023/04/26 06:24:24;;;;;;;11.38;2.42;;;4.70;99.90;;;;;;5056373;28;20491;-87
2023/04/26 06:26:50;;;;;;;8.98;2.67;;;4.80;99.90;;;;;;5072141;28;20575;-86
2023/04/26 06:29:16;;;;;;;10.35;3.00;;;4.90;99.90;;;;;;5073441;28;20040;-86
2023/04/26 06:31:42;;;;;;;9.05;2.58;;;4.90;99.90;;;;;;5055469;28;20565;-87
2023/04/26 06:34:07;;;;;;;6.90;2.30;;;5.00;99.90;;;;;;5060409;28;20052;-86
2023/04/26 06:36:33;;;;;;;8.63;2.47;;;5.10;99.90;;;;;;5036008;28;20075;-86
2023/04/26 06:38:58;;;;;;;10.88;2.40;;;5.20;99.90;;;;;;5044293;28;20039;-87
2023/04/26 06:41:24;;;;;;;9.30;2.58;;;5.30;99.90;;;;;;5036116;28;20062;-86
2023/04/26 06:43:49;;;;;;;18.10;3.35;;;5.40;99.90;;;;;;5062519;28;20091;-87
2023/04/26 06:46:15;;;;;;;8.10;2.38;;;5.50;99.90;;;;;;5072795;28;20036;-86
2023/04/26 06:48:41;;;;;;;9.35;2.72;;;5.50;99.90;;;;;;5072725;28;20036;-86
2023/04/26 06:51:07;;;;;;;8.68;2.50;;;5.50;99.90;;;;;;5063370;28;20043;-86
2023/04/26 06:53:34;;;;;;;12.00;2.25;;;5.60;99.90;;;;;;5057211;28;20032;-86
2023/04/26 06:56:00;;;;;;;8.48;2.22;;;5.70;99.90;;;;;;5071114;28;20089;-86
2023/04/26 06:58:26;;;;;;;8.48;2.80;;;5.80;99.90;;;;;;5063756;28;20048;-85
2023/04/26 07:00:51;;;;;;;6.35;2.03;;;5.80;99.90;;;;;;5055646;28;20443;-87
2023/04/26 07:03:17;;;;;;;8.07;2.50;;;5.90;99.90;;;;;;5067861;28;20040;-86
2023/04/26 07:05:43;;;;;;;10.07;2.28;;;5.90;99.90;;;;;;5054948;28;20063;-86
2023/04/26 07:08:08;;;;;;;11.23;2.40;;;6.00;99.90;;;;;;5055056;28;20035;-86
2023/04/26 07:10:34;;;;;;;8.05;2.00;;;6.10;99.90;;;;;;5051736;28;20513;-86
2023/04/26 07:13:00;;;;;;;6.07;2.20;;;6.10;99.90;;;;;;5053352;28;20048;-87
2023/04/26 07:15:25;;;;;;;10.68;2.88;;;6.10;99.90;;;;;;5071951;28;20043;-87
2023/04/26 07:17:51;;;;;;;8.48;2.28;;;6.20;99.90;;;;;;5072164;28;20096;-86
2023/04/26 07:20:19;;;;;;;8.20;2.60;;;6.40;99.90;;;;;;5054689;28;20405;-87
2023/04/26 07:22:46;;;;;;;8.82;2.33;;;6.50;99.90;;;;;;5055182;28;20046;-86
2023/04/26 07:25:11;;;;;;;7.47;2.00;;;6.70;99.90;;;;;;5072325;28;20155;-87
2023/04/26 07:27:37;;;;;;;6.78;1.92;;;6.80;99.90;;;;;;5072023;28;20548;-87
2023/04/26 07:30:04;;;;;;;10.20;2.33;;;6.90;99.90;;;;;;5035392;28;20043;-87
2023/04/26 07:32:30;;;;;;;8.30;2.40;;;7.00;99.90;;;;;;5051491;28;20045;-87
2023/04/26 07:34:56;;;;;;;8.07;2.33;;;7.10;99.90;;;;;;5050934;28;20051;-88
2023/04/26 07:37:21;;;;;;;8.32;1.63;;;7.20;99.90;;;;;;5054834;28;20090;-87
2023/04/26 07:39:47;;;;;;;8.43;2.00;;;7.30;99.90;;;;;;5065050;28;20424;-87
2023/04/26 07:42:13;;;;;;;6.03;1.88;;;7.30;99.90;;;;;;5075773;28;20082;-87
2023/04/26 07:44:38;;;;;;;6.90;2.20;;;7.30;99.90;;;;;;5054944;28;20037;-87
2023/04/26 07:47:04;;;;;;;7.38;1.98;;;7.30;99.90;;;;;;5055062;28;20036;-87
2023/04/26 07:49:29;;;;;;;7.72;1.92;;;7.40;99.90;;;;;;5074578;28;20122;-88
2023/04/26 07:51:57;;;;;;;6.60;1.70;;;7.50;99.90;;;;;;5058368;28;20071;-87
2023/04/26 07:54:22;;;;;;;6.22;1.70;;;7.60;99.90;;;;;;5058442;28;20028;-87
2023/04/26 07:56:48;;;;;;;6.63;1.85;;;7.80;99.90;;;;;;5055641;28;20466;-87
2023/04/26 07:59:13;;;;;;;5.18;1.70;;;7.90;99.90;;;;;;5059191;28;20464;-87
2023/04/26 08:01:39;;;;;;;8.57;2.20;;;8.00;99.90;;;;;;5058091;28;20066;-88
2023/04/26 08:04:05;;;;;;;6.20;1.67;;;8.10;99.90;;;;;;5074467;28;20044;-88
2023/04/26 08:06:30;;;;;;;7.60;1.63;;;8.20;99.90;;;;;;5075615;28;20040;-87
2023/04/26 08:08:56;;;;;;;4.82;1.50;;;8.20;99.90;;;;;;5047020;28;20044;-87
2023/04/26 08:11:22;;;;;;;7.10;1.60;;;8.20;99.90;;;;;;5038568;28;20074;-87
2023/04/26 08:13:47;;;;;;;6.50;1.80;;;8.20;99.90;;;;;;5067175;28;20127;-88
2023/04/26 08:16:13;;;;;;;9.00;1.70;;;8.30;99.90;;;;;;5074775;28;20139;-87
2023/04/26 08:18:39;;;;;;;7.95;1.52;;;8.30;99.90;;;;;;5058609;28;20036;-87
2023/04/26 08:21:05;;;;;;;6.43;1.88;;;8.40;99.90;;;;;;5050335;28;20029;-88
2023/04/26 08:23:35;;;;;;;7.68;1.75;;;8.50;99.90;;;;;;5038467;28;20040;-87
2023/04/26 08:26:01;;;;;;;6.30;1.63;;;8.50;99.90;;;;;;5067531;28;20473;-87
2023/04/26 08:28:26;;;;;;;6.57;1.67;;;8.70;99.90;;;;;;5058490;28;20097;-88
2023/04/26 08:30:52;;;;;;;6.40;1.80;;;8.60;99.90;;;;;;5049960;28;20173;-88
2023/04/26 08:33:18;;;;;;;7.60;2.05;;;8.60;99.10;;;;;;5072808;28;20044;-88
2023/04/26 08:35:43;;;;;;;6.45;1.60;;;8.70;99.90;;;;;;5074962;28;20044;-88
2023/04/26 08:38:09;;;;;;;9.80;1.60;;;8.80;99.90;;;;;;5053750;28;20036;-88
2023/04/26 08:40:35;;;;;;;6.20;2.20;;;8.80;99.90;;;;;;5056051;28;20409;-88
2023/04/26 08:43:01;;;;;;;5.80;1.55;;;8.80;99.90;;;;;;5049606;28;20052;-88
2023/04/26 08:45:26;;;;;;;4.43;1.58;;;8.80;99.90;;;;;;5056930;28;20485;-88
2023/04/26 08:47:55;;;;;;;8.60;1.80;;;8.90;99.90;;;;;;5072524;28;20032;-89
2023/04/26 08:50:22;;;;;;;8.70;1.50;;;9.00;99.90;;;;;;5060510;28;20090;-89
2023/04/26 08:52:50;;;;;;;6.82;1.75;;;9.10;99.90;;;;;;5083045;28;20052;-88
2023/04/26 08:55:17;;;;;;;4.55;1.42;;;9.10;98.30;;;;;;5067511;28;20122;-88
2023/04/26 08:57:46;;;;;;;10.20;2.00;;;9.10;95.80;;;;;;5094994;28;20045;-88
2023/04/26 09:00:14;;;;;;;6.05;1.45;;;9.10;94.20;;;;;;5050420;28;20078;-88
2023/04/26 09:02:41;;;;;;;7.57;1.83;;;9.20;93.80;;;;;;5038398;28;20037;-89
2023/04/26 09:05:08;;;;;;;6.97;2.03;;;9.20;93.30;;;;;;5045159;28;20513;-88
2023/04/26 09:07:47;;;;;;;4.45;1.65;;;9.10;93.60;;;;;;5057933;28;20036;-89
2023/04/26 09:10:19;;;;;;;7.43;1.85;;;8.90;92.80;;;;;;5057795;28;20132;-88
2023/04/26 09:12:45;;;;;;;7.28;1.60;;;8.70;92.70;;;;;;5073715;28;20058;-89
2023/04/26 09:15:14;;;;;;;7.05;1.67;;;8.50;93.40;;;;;;5056440;28;20405;-88
2023/04/26 09:17:40;;;;;;;5.68;1.80;;;8.50;94.60;;;;;;5058301;28;20071;-88
2023/04/26 09:20:26;;;;;;;7.95;1.80;;;8.40;95.40;;;;;;5073389;28;20763;-88
2023/04/26 09:23:02;;;;;;;5.53;1.70;;;8.30;96.00;;;;;;5055940;28;20036;-89
2023/04/26 09:25:29;;;;;;;6.57;1.85;;;8.30;96.00;;;;;;5050258;28;20514;-88
2023/04/26 09:27:55;;;;;;;9.20;2.22;;;8.30;96.70;;;;;;5054503;28;20386;-89
2023/04/26 09:30:21;;;;;;;7.97;2.22;;;8.30;97.70;;;;;;5046270;28;20036;-88
2023/04/26 09:32:50;;;;;;;7.40;1.42;;;8.30;99.20;;;;;;5037315;28;20040;-89
2023/04/26 09:35:31;;;;;;;6.78;1.80;;;8.40;98.60;;;;;;5038154;28;20048;-89
2023/04/26 09:38:08;;;;;;;7.10;1.85;;;8.40;97.60;;;;;;5038095;28;20123;-89
2023/04/26 09:40:45;;;;;;;7.65;2.03;;;8.50;97.60;;;;;;5037813;28;20085;-88
2023/04/26 09:43:14;;;;;;;5.30;1.80;;;8.60;97.50;;;;;;5049401;28;20464;-88
2023/04/26 09:45:52;;;;;;;6.97;2.10;;;8.60;97.00;;;;;;5057349;28;20040;-89
2023/04/26 09:48:29;;;;;;;7.70;2.47;;;8.60;94.80;;;;;;5073129;28;20099;-88
2023/04/26 09:50:57;;;;;;;10.30;2.15;;;8.70;95.20;;;;;;5055576;28;20047;-90
2023/04/26 09:53:45;;;;;;;8.68;2.35;;;8.70;94.40;;;;;;5055472;28;20036;-88
2023/04/26 09:56:16;;;;;;;8.45;2.15;;;8.70;95.90;;;;;;5053519;28;20174;-88
2023/04/26 09:58:59;;;;;;;6.88;1.98;;;8.60;94.90;;;;;;5056852;28;20104;-88
2023/04/26 10:01:28;;;;;;;7.85;1.98;;;8.60;93.50;;;;;;5050523;28;20047;-88
2023/04/26 10:03:56;;;;;;;9.63;2.50;;;8.60;94.10;;;;;;5072611;28;20078;-89
2023/04/26 10:06:22;;;;;;;7.18;1.92;;;8.70;94.80;;;;;;5056480;28;20076;-87
2023/04/26 10:08:48;;;;;;;8.55;2.30;;;8.70;95.10;;;;;;5053854;28;20280;-88
2023/04/26 10:11:13;;;;;;;8.27;2.00;;;8.90;96.10;;;;;;5056612;28;20024;-88
2023/04/26 10:13:40;;;;;;;6.03;1.98;;;9.10;95.70;;;;;;5071673;28;20623;-88
2023/04/26 10:16:07;;;;;;;9.38;2.15;;;9.20;93.80;;;;;;5055339;28;20084;-88
2023/04/26 10:18:33;;;;;;;7.45;2.10;;;9.40;93.30;;;;;;5056288;28;20032;-89
2023/04/26 10:21:09;;;;;;;8.75;2.05;;;9.50;92.80;;;;;;5063610;28;20450;-89
2023/04/26 10:23:36;;;;;;;7.50;2.28;;;9.50;92.60;;;;;;5036702;28;20044;-88
2023/04/26 10:26:02;;;;;;;8.10;2.22;;;9.50;91.50;;;;;;5067677;28;20430;-89
2023/04/26 10:28:42;;;;;;;7.53;1.90;;;9.60;92.70;;;;;;5072741;28;20050;-90
2023/04/26 10:31:09;;;;;;;10.52;3.50;;;9.60;91.20;;;;;;5056121;28;20131;-89
2023/04/26 10:33:35;;;;;;;5.57;1.73;;;9.70;91.30;;;;;;5046022;28;20042;-89
2023/04/26 10:36:08;;;;;;;5.28;1.48;;;9.90;92.00;;;;;;5073327;28;20397;-88
2023/04/26 10:38:40;;;;;;;;;;;9.90;90.20;;;;;;5047447;28;20047;-89
2023/04/26 10:41:29;;;;;;;5.60;1.73;;;9.90;86.10;;;;;;5056202;28;19916;-88
2023/04/26 10:43:55;;;;;;;4.93;1.80;;;9.90;87.20;;;;;;5055916;28;20040;-89
2023/04/26 10:46:38;;;;;;;8.13;1.60;;;10.00;86.80;;;;;;5057383;28;20062;-89
2023/04/26 10:49:17;;;;;;;8.20;1.55;;;10.20;84.10;;;;;;5073219;28;20063;-89
2023/04/26 10:52:12;;;;;;;9.55;2.25;;;10.20;81.90;;;;;;5053648;28;20119;-89
2023/04/26 10:54:48;;;;;;;5.43;1.83;;;10.30;84.50;;;;;;5053474;28;20036;-88
2023/04/26 10:57:14;;;;;;;4.25;1.30;;;10.50;86.00;;;;;;5053159;28;20044;-89
2023/04/26 10:59:40;;;;;;;8.05;1.70;;;10.50;83.60;;;;;;5054055;28;20490;-89
2023/04/26 11:02:12;;;;;;;7.35;1.90;;;10.30;81.70;;;;;;5072533;28;20147;-89
2023/04/26 11:04:53;;;;;;;6.93;1.60;;;10.30;83.50;;;;;;5056889;28;20043;-89
2023/04/26 11:07:36;;;;;;;6.72;1.75;;;10.20;83.70;;;;;;5048461;28;20638;-90
2023/04/26 11:10:02;;;;;;;9.50;1.80;;;10.20;85.20;;;;;;5052550;28;20044;-88
2023/04/26 11:12:28;;;;;;;9.30;2.42;;;10.10;86.10;;;;;;5040312;28;20135;-89
2023/04/26 11:14:55;;;;;;;6.88;2.08;;;10.00;86.90;;;;;;5073050;28;20048;-89
2023/04/26 11:17:21;;;;;;;8.73;1.90;;;9.90;87.70;;;;;;5061446;28;20094;-89
2023/04/26 11:19:46;;;;;;;7.18;1.88;;;9.90;88.50;;;;;;5058643;28;20072;-88
2023/04/26 11:22:12;;;;;;;4.18;1.60;;;9.90;88.80;;;;;;5069687;28;20115;-88
2023/04/26 11:24:38;;;;;;;3.90;1.60;;;9.80;89.70;;;;;;5066326;28;20587;-87
2023/04/26 11:27:10;;;;;;;8.65;2.05;;;9.80;90.10;;;;;;5064686;28;20035;-88
2023/04/26 11:29:37;;;;;;;7.45;2.08;;;9.70;89.70;;;;;;5069111;28;20043;-88
2023/04/26 11:32:03;;;;;;;9.07;1.67;;;9.70;90.30;;;;;;5070939;28;20035;-88
2023/04/26 11:34:38;;;;;;;9.07;2.42;;;9.70;90.60;;;;;;5067419;28;20122;-88
2023/04/26 11:37:05;;;;;;;6.35;1.90;;;9.70;90.20;;;;;;5059105;28;20032;-87
2023/04/26 11:39:35;;;;;;;6.90;1.75;;;9.70;90.20;;;;;;5058935;28;20036;-88
2023/04/26 11:42:11;;;;;;;6.43;1.88;;;9.80;90.30;;;;;;5059038;28;20043;-88
2023/04/26 11:44:38;;;;;;;5.65;1.58;;;9.80;90.40;;;;;;5041451;28;20037;-88
2023/04/26 11:47:05;;;;;;;7.30;2.28;;;9.80;90.30;;;;;;5039349;28;20044;-88
2023/04/26 11:49:32;;;;;;;8.98;1.77;;;9.90;90.10;;;;;;5064271;28;20074;-88
2023/04/26 11:51:58;;;;;;;7.18;1.90;;;9.90;90.10;;;;;;5056051;28;20036;-89
2023/04/26 11:54:35;;;;;;;5.00;1.65;;;9.90;89.40;;;;;;5057186;28;20406;-88
2023/04/26 11:57:12;;;;;;;7.07;1.50;;;10.00;89.20;;;;;;5058742;28;20035;-88
2023/04/26 11:59:38;;;;;;;6.10;1.70;;;10.00;86.80;;;;;;5059152;28;20036;-89
2023/04/26 12:02:07;;;;;;;7.85;1.65;;;10.00;85.20;;;;;;5066247;28;20032;-88
2023/04/26 12:04:33;;;;;;;5.65;1.73;;;10.10;84.80;;;;;;5058604;28;20481;-88
2023/04/26 12:06:59;;;;;;;4.82;1.52;;;10.10;84.50;;;;;;5049847;28;20111;-88
2023/04/26 12:09:29;;;;;;;5.38;1.67;;;10.00;82.30;;;;;;5059274;28;20588;-88
2023/04/26 12:12:00;;;;;;;5.97;1.70;;;10.00;82.00;;;;;;5058918;28;20021;-88
2023/04/26 12:14:31;;;;;;;6.65;2.05;;;10.00;82.90;;;;;;5075830;28;20093;-88
2023/04/26 12:17:01;;;;;;;4.28;1.55;;;10.20;84.20;;;;;;5075246;28;20040;-88
2023/04/26 12:19:31;;;;;;;5.50;1.65;;;10.50;84.80;;;;;;5045206;28;20043;-88
2023/04/26 12:21:57;;;;;;;4.75;1.63;;;10.70;82.20;;;;;;5038978;28;20072;-89
2023/04/26 12:24:35;;;;;;;7.32;1.75;;;10.90;80.30;;;;;;5050931;28;20075;-88
2023/04/26 12:27:05;;;;;;;5.07;1.52;;;11.10;79.10;;;;;;5059646;28;20040;-88
2023/04/26 12:29:32;;;;;;;4.07;1.63;;;11.10;78.60;;;;;;5075033;28;20043;-88
2023/04/26 12:31:59;;;;;;;8.63;1.92;;;10.90;77.90;;;;;;5058994;28;20036;-88
2023/04/26 12:34:24;;;;;;;4.10;1.17;;;10.70;78.10;;;;;;5059462;28;20036;-89
2023/04/26 12:36:50;;;;;;;6.00;1.67;;;10.60;77.30;;;;;;5075371;28;20081;-88
2023/04/26 12:39:16;;;;;;;5.78;2.33;;;10.30;77.70;;;;;;5058784;28;20040;-88
2023/04/26 12:41:42;;;;;;;7.38;1.77;;;10.30;78.10;;;;;;5057594;28;20036;-88
2023/04/26 12:44:09;;;;;;;4.75;1.88;;;10.10;77.40;;;;;;5056648;28;20047;-88
2023/04/26 12:46:35;;;;;;;6.15;1.92;;;10.00;79.10;;;;;;5062601;28;20040;-88
2023/04/26 12:49:00;;;;;;;5.18;1.63;;;9.90;79.10;;;;;;5067735;28;20036;-88
2023/04/26 12:51:27;;;;;;;5.20;1.50;;;9.80;79.60;;;;;;5070347;28;20510;-88
2023/04/26 12:53:52;;;;;;;5.68;1.95;;;9.80;79.70;;;;;;5055370;28;20040;-88
2023/04/26 12:56:18;;;;;;;7.70;1.85;;;9.70;79.70;;;;;;5079920;28;20035;-88